Time;durP1;ratioP1;P1;durP2;ratioP2;P2;SDS_P1;SDS_P2;PMS_P1;PMS_P2;Temp;Humidity;BMP_temperature;BMP_pressure;BME280_temperature;BME280_humidity;BME280_pressure;Samples;Min_cycle;Max_cycle;Signal;HPM_P1;HPM_P2
2022/05/30 00:00:24;;;;;;;11.53;4.10;;;;;;;9.21;85.99;101240.28;5071488;28;20032;-86
2022/05/30 00:02:50;;;;;;;11.10;4.00;;;;;;;9.13;86.14;101245.81;5070020;28;20032;-85
2022/05/30 00:05:17;;;;;;;11.47;3.93;;;;;;;8.98;86.53;101247.75;5067176;28;20039;-86
2022/05/30 00:07:42;;;;;;;8.43;3.90;;;;;;;8.93;87.08;101246.44;5070150;28;20489;-85
2022/05/30 00:10:10;;;;;;;10.83;4.10;;;;;;;8.94;86.70;101236.47;5055552;28;20032;-86
2022/05/30 00:12:36;;;;;;;14.20;4.20;;;;;;;8.90;86.51;101238.69;5070701;28;20036;-85
2022/05/30 00:15:03;;;;;;;11.17;4.13;;;;;;;8.79;85.37;101239.22;5071196;28;20127;-85
2022/05/30 00:17:29;;;;;;;11.87;4.30;;;;;;;8.78;85.25;101240.22;5070272;28;20033;-85
2022/05/30 00:19:55;;;;;;;10.60;3.70;;;;;;;8.67;84.83;101228.06;5032771;28;20028;-85
2022/05/30 00:22:20;;;;;;;11.60;4.20;;;;;;;8.68;85.37;101232.44;5084033;28;20159;-85
2022/05/30 00:24:46;;;;;;;12.43;4.60;;;;;;;8.58;85.78;101238.13;5036830;28;20055;-86
2022/05/30 00:27:11;;;;;;;13.43;4.50;;;;;;;8.49;85.82;101227.63;5053916;28;20032;-86
2022/05/30 00:29:38;;;;;;;9.03;4.30;;;;;;;8.47;85.86;101229.69;5067494;28;20025;-85
2022/05/30 00:32:05;;;;;;;9.77;3.80;;;;;;;8.53;86.11;101231.63;5067110;28;20040;-85
2022/05/30 00:34:32;;;;;;;10.27;4.03;;;;;;;8.41;86.16;101215.03;5067209;28;20483;-85
2022/05/30 00:36:57;;;;;;;12.93;4.37;;;;;;;8.43;86.21;101224.63;5062256;28;20055;-86
2022/05/30 00:39:23;;;;;;;10.00;4.27;;;;;;;8.46;86.33;101228.84;5071243;28;20106;-85
2022/05/30 00:41:48;;;;;;;8.97;3.60;;;;;;;8.35;86.50;101221.19;5052675;28;20025;-85
2022/05/30 00:44:13;;;;;;;11.57;4.37;;;;;;;8.32;86.63;101206.19;5043460;28;20576;-85
2022/05/30 00:46:40;;;;;;;9.80;3.90;;;;;;;8.41;87.11;101229.38;5068414;28;20029;-85
2022/05/30 00:49:10;;;;;;;10.33;3.97;;;;;;;8.40;87.15;101232.25;5069340;28;20029;-86
2022/05/30 00:51:49;;;;;;;9.17;4.03;;;;;;;8.40;87.31;101224.97;5065376;28;20032;-85
2022/05/30 00:54:20;;;;;;;9.47;4.20;;;;;;;8.32;87.27;101221.56;5061551;28;20316;-85
2022/05/30 00:56:50;;;;;;;10.40;4.20;;;;;;;8.28;87.23;101221.94;5065165;28;20024;-85
2022/05/30 00:59:15;;;;;;;10.23;4.33;;;;;;;8.27;87.19;101231.06;5060411;28;20032;-85
2022/05/30 01:01:41;;;;;;;9.20;4.20;;;;;;;8.24;87.28;101228.75;5061653;28;20024;-85
2022/05/30 01:06:54;;;;;;;11.00;4.20;;;;;;;8.14;87.23;101225.47;5068941;28;20047;-85
2022/05/30 01:09:25;;;;;;;11.27;4.30;;;;;;;8.10;87.55;101227.72;5070431;28;20020;-85
2022/05/30 01:12:01;;;;;;;11.67;4.37;;;;;;;8.08;87.69;101232.47;5069272;28;20048;-86
2022/05/30 01:14:31;;;;;;;15.20;4.50;;;;;;;8.08;87.77;101226.25;5068754;28;20519;-85
2022/05/30 01:16:58;;;;;;;11.10;4.07;;;;;;;8.04;87.83;101219.53;5069262;28;20031;-86
2022/05/30 01:19:38;;;;;;;11.37;4.80;;;;;;;7.98;88.30;101220.25;5054435;28;20042;-85
2022/05/30 01:22:23;;;;;;;13.00;4.73;;;;;;;7.88;89.10;101223.25;5065461;28;20020;-86
2022/05/30 01:25:40;;;;;;;8.65;4.47;;;;;;;7.84;88.93;101213.84;5062771;28;20016;-85
2022/05/30 01:28:12;;;;;;;9.33;4.27;;;;;;;7.77;88.51;101222.66;5060556;28;20039;-85
2022/05/30 01:30:40;;;;;;;11.70;4.70;;;;;;;7.71;88.75;101218.03;5070425;28;20119;-86
2022/05/30 01:33:06;;;;;;;10.53;4.50;;;;;;;7.75;88.90;101218.47;5065528;28;20032;-85
2022/05/30 01:35:32;;;;;;;12.63;4.53;;;;;;;7.69;88.62;101221.91;5070771;28;20957;-85
2022/05/30 01:37:58;;;;;;;13.63;4.97;;;;;;;7.69;89.32;101211.13;5067731;28;20047;-86
2022/05/30 01:40:26;;;;;;;10.67;4.43;;;;;;;7.63;89.06;101207.31;5050434;28;20032;-85
2022/05/30 01:42:52;;;;;;;9.20;4.67;;;;;;;7.63;89.06;101206.44;5068365;28;20032;-85
2022/05/30 01:45:18;;;;;;;14.87;4.77;;;;;;;7.58;89.17;101207.84;5027169;28;20358;-85
2022/05/30 01:47:44;;;;;;;12.17;4.50;;;;;;;7.62;89.45;101202.94;5068837;28;20047;-85
2022/05/30 01:50:09;;;;;;;16.17;5.00;;;;;;;7.57;89.63;101192.69;5052663;28;21081;-85
2022/05/30 01:52:35;;;;;;;12.20;4.67;;;;;;;7.55;89.84;101205.53;5069007;28;20090;-85
2022/05/30 01:55:00;;;;;;;12.13;4.50;;;;;;;7.54;89.94;101203.84;5051985;28;20086;-85
2022/05/30 01:57:26;;;;;;;10.37;4.50;;;;;;;7.46;89.95;101195.81;5067894;28;20028;-86
2022/05/30 01:59:51;;;;;;;9.50;4.27;;;;;;;7.47;89.58;101208.28;5064673;28;20036;-85
2022/05/30 02:02:16;;;;;;;10.13;4.37;;;;;;;7.40;89.36;101196.56;5047617;28;20369;-85
2022/05/30 02:04:42;;;;;;;11.23;4.40;;;;;;;7.39;89.47;101200.28;5062565;28;20498;-85
2022/05/30 02:07:07;;;;;;;13.80;4.70;;;;;;;7.44;89.85;101203.28;5051561;28;20059;-86
2022/05/30 02:09:33;;;;;;;9.97;4.73;;;;;;;7.45;89.87;101199.53;5051826;28;20119;-85
2022/05/30 02:11:58;;;;;;;11.47;4.70;;;;;;;7.40;89.86;101196.56;5047252;28;20020;-85
2022/05/30 02:14:24;;;;;;;8.70;4.43;;;;;;;7.42;90.01;101197.22;5046534;28;20517;-85
2022/05/30 02:17:01;;;;;;;10.83;4.63;;;;;;;7.36;90.18;101206.03;5032837;28;20406;-85
2022/05/30 02:19:42;;;;;;;8.57;4.70;;;;;;;7.31;90.01;101201.19;5062313;28;20044;-85
2022/05/30 02:22:10;;;;;;;8.13;4.60;;;;;;;7.21;89.76;101195.22;5067121;28;20032;-85
2022/05/30 02:24:36;;;;;;;12.23;5.20;;;;;;;7.19;89.76;101189.16;5065934;28;20067;-85
2022/05/30 02:27:02;;;;;;;8.13;4.40;;;;;;;7.17;89.81;101196.59;5067339;28;20060;-86
2022/05/30 02:29:27;;;;;;;9.13;4.73;;;;;;;7.13;89.82;101198.81;5052845;28;20040;-85
2022/05/30 02:31:52;;;;;;;7.43;4.23;;;;;;;7.15;90.18;101202.13;5067309;28;20032;-85
2022/05/30 02:37:02;;;;;;;12.60;5.33;;;;;;;6.96;90.29;101181.09;5069789;28;20070;-86
2022/05/30 02:39:29;;;;;;;10.93;5.03;;;;;;;7.19;91.15;101205.31;5068122;28;20029;-85
2022/05/30 02:41:54;;;;;;;13.57;5.70;;;;;;;7.11;91.15;101198.13;5061585;28;20032;-86
2022/05/30 02:44:22;;;;;;;9.10;4.70;;;;;;;7.08;91.49;101198.50;5062297;28;20028;-85
2022/05/30 02:46:49;;;;;;;6.57;4.87;;;;;;;7.06;91.34;101187.09;5062482;28;20028;-85
2022/05/30 02:49:15;;;;;;;11.73;5.03;;;;;;;7.04;91.46;101183.72;5066750;28;20093;-86
2022/05/30 02:51:41;;;;;;;13.47;5.20;;;;;;;7.08;91.31;101187.72;5045874;28;20119;-85
2022/05/30 02:54:07;;;;;;;9.17;5.00;;;;;;;7.05;91.65;101182.69;5050915;28;20441;-85
2022/05/30 02:56:32;;;;;;;10.50;5.30;;;;;;;7.06;92.15;101179.81;5067552;28;20032;-86
2022/05/30 02:58:58;;;;;;;8.97;5.40;;;;;;;7.10;92.36;101180.31;5051047;28;20029;-85
2022/05/30 03:01:24;;;;;;;13.63;5.50;;;;;;;6.96;92.81;101156.84;5064520;28;20067;-85
2022/05/30 03:03:50;;;;;;;13.80;6.00;;;;;;;7.09;93.25;101184.84;5064125;28;20468;-85
2022/05/30 03:06:16;;;;;;;11.67;5.67;;;;;;;7.08;93.58;101193.13;5063668;28;20028;-85
2022/05/30 03:08:41;;;;;;;12.07;5.67;;;;;;;7.10;93.94;101185.69;5067889;28;20060;-85
2022/05/30 03:11:07;;;;;;;13.10;5.87;;;;;;;7.14;94.15;101194.25;5065232;28;20166;-85
2022/05/30 03:13:33;;;;;;;14.43;5.87;;;;;;;7.15;94.39;101194.06;5064196;28;20392;-85
2022/05/30 03:15:59;;;;;;;10.43;5.57;;;;;;;7.22;94.76;101186.09;5054546;28;20028;-85
2022/05/30 03:18:25;;;;;;;11.67;5.93;;;;;;;7.11;94.44;101171.19;5063779;28;20473;-85
2022/05/30 03:20:50;;;;;;;14.47;5.70;;;;;;;7.18;94.25;101203.63;5047811;28;20468;-85
2022/05/30 03:23:16;;;;;;;13.70;6.13;;;;;;;7.16;94.51;101195.75;5062927;28;20028;-85
2022/05/30 03:25:41;;;;;;;10.53;5.80;;;;;;;7.18;94.80;101199.09;5059364;28;20055;-85
2022/05/30 03:28:07;;;;;;;12.13;5.87;;;;;;;7.21;95.13;101195.22;5046069;28;20047;-85
2022/05/30 03:30:36;;;;;;;12.43;6.30;;;;;;;7.19;94.85;101200.75;5062708;28;20032;-85
2022/05/30 03:33:04;;;;;;;11.13;5.83;;;;;;;7.25;95.22;101199.22;5058935;28;20036;-85
2022/05/30 03:35:29;;;;;;;12.87;6.17;;;;;;;7.32;95.46;101193.94;5063926;28;20224;-85
2022/05/30 03:37:55;;;;;;;14.33;6.37;;;;;;;7.29;95.54;101199.69;5061048;28;20574;-85
2022/05/30 03:40:20;;;;;;;11.50;6.27;;;;;;;7.15;95.39;101179.75;5050533;28;20063;-85
2022/05/30 03:42:45;;;;;;;12.70;6.40;;;;;;;7.36;95.81;101203.34;5050586;28;20119;-85
2022/05/30 03:45:13;;;;;;;16.53;6.97;;;;;;;7.31;95.68;101203.06;5030372;28;20036;-85
2022/05/30 03:47:41;;;;;;;15.00;6.87;;;;;;;7.33;95.57;101206.38;5050318;28;20040;-85
2022/05/30 03:50:08;;;;;;;14.37;6.67;;;;;;;7.35;95.42;101204.34;5064859;28;20025;-85
2022/05/30 03:52:33;;;;;;;16.90;6.80;;;;;;;7.33;95.37;101201.84;5061061;28;20512;-85
2022/05/30 03:55:02;;;;;;;15.83;7.17;;;;;;;7.46;95.78;101212.00;5066083;28;20055;-85
2022/05/30 03:57:28;;;;;;;16.57;6.77;;;;;;;7.47;95.55;101205.59;5064718;28;20065;-85
2022/05/30 03:59:53;;;;;;;15.40;7.20;;;;;;;7.39;95.23;101200.28;5062714;28;20492;-85
2022/05/30 04:02:18;;;;;;;15.30;6.83;;;;;;;7.46;95.12;101203.91;5042598;28;20058;-85
2022/05/30 04:04:44;;;;;;;16.67;6.90;;;;;;;7.47;94.80;101208.28;5032918;28;20024;-85
2022/05/30 04:07:09;;;;;;;13.90;7.23;;;;;;;7.47;95.00;101202.06;5065674;28;20063;-85
2022/05/30 04:09:35;;;;;;;14.80;7.23;;;;;;;7.54;94.96;101205.72;5049506;28;20025;-85
2022/05/30 04:12:00;;;;;;;17.93;7.50;;;;;;;7.50;94.76;101205.22;5065518;28;20032;-85
2022/05/30 04:14:25;;;;;;;15.20;6.90;;;;;;;7.52;94.73;101196.94;5066977;28;20032;-85
2022/05/30 04:16:51;;;;;;;15.37;6.57;;;;;;;7.55;94.70;101196.59;5062415;28;20025;-85
2022/05/30 04:19:16;;;;;;;17.03;7.73;;;;;;;7.51;94.78;101190.72;5050132;28;20020;-85
2022/05/30 04:21:42;;;;;;;15.57;7.60;;;;;;;7.56;94.44;101198.25;5060332;28;20763;-85
2022/05/30 04:24:07;;;;;;;16.90;7.10;;;;;;;7.65;94.67;101199.84;5068099;28;20447;-85
2022/05/30 04:26:33;;;;;;;17.00;7.53;;;;;;;7.71;94.96;101201.84;5048947;28;20103;-85
2022/05/30 04:28:58;;;;;;;19.10;7.13;;;;;;;7.73;94.99;101201.66;5058480;28;20115;-85
2022/05/30 04:31:24;;;;;;;16.10;7.10;;;;;;;7.77;94.89;101197.56;5047701;28;20032;-85
2022/05/30 04:33:49;;;;;;;14.87;6.90;;;;;;;7.69;94.29;101194.94;5050068;28;20035;-85
2022/05/30 04:36:15;;;;;;;14.17;6.67;;;;;;;7.77;93.81;101202.94;5028817;28;20509;-85
2022/05/30 04:38:40;;;;;;;13.47;6.13;;;;;;;7.81;93.59;101198.84;5049492;28;20047;-85
2022/05/30 04:41:06;;;;;;;13.27;6.77;;;;;;;7.77;93.31;101193.00;5046617;28;20028;-85
2022/05/30 04:43:31;;;;;;;13.83;6.70;;;;;;;7.85;93.37;101200.16;5045902;28;20024;-85
2022/05/30 04:46:19;;;;;;;14.17;6.87;;;;;;;7.93;93.73;101210.03;5067196;28;20055;-85
2022/05/30 04:48:45;;;;;;;14.07;6.43;;;;;;;7.94;93.66;101203.59;5061100;28;20016;-85
2022/05/30 04:51:11;;;;;;;14.00;6.60;;;;;;;7.96;93.80;101206.13;5050246;28;20130;-85
2022/05/30 04:53:37;;;;;;;12.63;6.47;;;;;;;7.99;93.36;101208.47;5053009;28;20500;-86
2022/05/30 04:56:03;;;;;;;14.57;6.83;;;;;;;8.02;93.09;101213.47;5053410;28;20029;-85
2022/05/30 04:58:29;;;;;;;12.93;6.40;;;;;;;7.99;93.30;101201.19;5053573;28;20050;-85
2022/05/30 05:00:58;;;;;;;12.57;6.17;;;;;;;8.13;92.74;101217.56;5048295;28;20025;-85
2022/05/30 05:03:24;;;;;;;16.93;6.07;;;;;;;8.11;92.10;101215.06;5069455;28;20123;-85
2022/05/30 05:05:50;;;;;;;14.27;6.20;;;;;;;8.14;91.82;101224.66;5070467;28;20039;-85
2022/05/30 05:08:15;;;;;;;14.67;6.07;;;;;;;8.21;91.91;101221.00;5033004;28;20025;-85
2022/05/30 05:10:47;;;;;;;14.07;6.20;;;;;;;8.30;91.99;101223.63;5062891;28;20024;-85
2022/05/30 05:13:13;;;;;;;15.83;6.33;;;;;;;8.30;91.29;101223.63;5064204;28;20025;-86
2022/05/30 05:15:38;;;;;;;14.70;6.13;;;;;;;8.37;90.59;101221.84;5069366;28;20039;-85
2022/05/30 05:18:04;;;;;;;17.90;6.10;;;;;;;8.38;90.44;101216.25;5062186;28;20033;-87
2022/05/30 05:20:41;;;;;;;15.93;6.30;;;;;;;8.55;90.72;101216.06;5065708;28;20052;-86
2022/05/30 05:23:07;;;;;;;15.27;6.10;;;;;;;8.58;89.76;101224.63;5069359;28;20029;-87
2022/05/30 05:25:36;;;;;;;12.90;6.00;;;;;;;8.59;89.82;101218.22;5066898;28;20040;-87
2022/05/30 05:28:01;;;;;;;14.63;5.43;;;;;;;8.65;88.72;101231.97;5053328;28;20390;-87
2022/05/30 05:30:27;;;;;;;10.17;5.37;;;;;;;8.73;88.54;101226.44;5050180;28;20036;-87
2022/05/30 05:32:52;;;;;;;14.10;5.30;;;;;;;8.78;87.89;101227.56;5052948;28;20032;-86
2022/05/30 05:35:17;;;;;;;14.20;5.37;;;;;;;8.88;87.58;101227.25;5069727;28;20545;-87
2022/05/30 05:37:43;;;;;;;10.70;5.40;;;;;;;8.97;87.59;101227.97;5069809;28;20032;-87
2022/05/30 05:40:09;;;;;;;15.87;5.23;;;;;;;9.02;86.51;101233.63;5047438;28;20054;-87
2022/05/30 05:42:34;;;;;;;11.57;4.80;;;;;;;9.09;87.74;101233.72;5030067;28;20029;-87
2022/05/30 05:44:59;;;;;;;16.73;5.13;;;;;;;9.21;88.14;101232.16;5049113;28;20029;-87
2022/05/30 05:47:25;;;;;;;9.77;4.27;;;;;;;9.40;86.84;101241.50;5064033;28;20040;-80
2022/05/30 05:49:50;;;;;;;8.27;3.90;;;;;;;9.53;85.51;101240.75;5056811;28;20039;-80
2022/05/30 05:52:15;;;;;;;10.83;4.50;;;;;;;9.48;85.52;101240.53;5054785;28;20515;-80
2022/05/30 05:54:41;;;;;;;11.50;4.90;;;;;;;9.46;85.91;101220.94;5045559;28;20503;-86
2022/05/30 05:57:07;;;;;;;12.60;4.30;;;;;;;9.70;84.74;101246.72;5051241;28;20115;-86
2022/05/30 05:59:33;;;;;;;12.60;3.80;;;;;;;9.81;83.91;101248.06;5047552;28;20028;-86
2022/05/30 06:01:58;;;;;;;10.47;3.90;;;;;;;9.92;82.59;101254.81;5062521;28;20066;-86
2022/05/30 06:04:24;;;;;;;9.67;4.00;;;;;;;10.03;82.63;101250.72;5067560;28;20489;-86
2022/05/30 06:06:49;;;;;;;9.17;3.70;;;;;;;10.11;82.10;101243.25;5050279;28;20115;-86
2022/05/30 06:09:14;;;;;;;9.73;3.90;;;;;;;10.25;82.13;101254.19;5065784;28;20032;-86
2022/05/30 06:11:40;;;;;;;13.27;4.17;;;;;;;10.29;80.69;101244.63;5065687;28;20070;-86
2022/05/30 06:14:05;;;;;;;13.33;3.27;;;;;;;10.29;79.63;101256.31;5066824;28;20035;-85
2022/05/30 06:16:34;;;;;;;8.83;2.40;;;;;;;10.16;77.24;101239.13;5068829;28;20545;-86
2022/05/30 06:19:02;;;;;;;7.77;2.60;;;;;;;10.20;77.40;101252.09;5057904;28;20021;-86
2022/05/30 06:21:29;;;;;;;10.13;2.70;;;;;;;10.22;75.73;101249.16;5061882;28;20059;-86
2022/05/30 06:23:56;;;;;;;9.73;2.70;;;;;;;10.33;76.79;101261.31;5069081;28;21963;-86
2022/05/30 06:26:22;;;;;;;8.33;2.90;;;;;;;10.45;77.84;101254.31;5061420;28;20045;-86
2022/05/30 06:28:48;;;;;;;9.33;2.73;;;;;;;10.57;76.46;101255.41;5047272;28;20037;-86
2022/05/30 06:31:27;;;;;;;9.60;2.70;;;;;;;10.51;75.62;101260.81;5061567;28;21885;-87
2022/05/30 06:33:53;;;;;;;7.00;2.77;;;;;;;10.36;73.54;101269.06;5063506;28;20042;-87
2022/05/30 06:36:22;;;;;;;11.23;3.07;;;;;;;10.29;74.88;101260.88;5050811;28;20028;-87
2022/05/30 06:38:48;;;;;;;8.70;2.70;;;;;;;10.31;74.07;101265.06;5063017;28;20021;-87
2022/05/30 06:41:20;;;;;;;6.27;2.60;;;;;;;10.50;74.13;101262.69;5068849;28;20472;-87
2022/05/30 06:43:46;;;;;;;9.80;3.07;;;;;;;10.69;75.27;101265.66;5065779;28;20017;-86
2022/05/30 06:46:14;;;;;;;11.13;2.87;;;;;;;10.92;73.99;101265.34;5063641;28;20032;-86
2022/05/30 06:48:40;;;;;;;7.10;2.63;;;;;;;11.02;74.59;101267.69;5063396;28;20056;-86
2022/05/30 06:51:10;;;;;;;8.87;2.80;;;;;;;11.04;72.90;101268.28;5065951;28;20035;-86
2022/05/30 06:53:35;;;;;;;8.53;2.57;;;;;;;11.19;73.03;101271.66;5068220;28;20033;-86
2022/05/30 06:56:01;;;;;;;5.53;2.80;;;;;;;11.22;70.98;101259.56;5066631;28;20028;-86
2022/05/30 06:58:28;;;;;;;10.17;2.50;;;;;;;11.37;71.41;101268.38;5068318;28;20032;-85
2022/05/30 07:01:00;;;;;;;9.43;2.70;;;;;;;11.59;72.00;101271.72;5062610;28;20140;-86
2022/05/30 07:03:25;;;;;;;8.63;2.50;;;;;;;11.70;69.89;101258.59;5060899;28;20572;-86
2022/05/30 07:05:50;;;;;;;6.87;2.50;;;;;;;11.75;69.34;101261.47;5051397;28;20029;-85
2022/05/30 07:08:16;;;;;;;9.90;2.47;;;;;;;12.03;69.19;101274.03;5067809;28;20032;-87
2022/05/30 07:10:41;;;;;;;5.83;2.30;;;;;;;12.27;68.75;101278.78;5065801;28;20040;-86
2022/05/30 07:13:07;;;;;;;5.73;2.30;;;;;;;12.43;67.88;101272.06;5049943;28;20499;-87
2022/05/30 07:15:36;;;;;;;7.67;2.50;;;;;;;12.52;66.17;101274.56;5066760;28;20032;-86
2022/05/30 07:18:13;;;;;;;7.50;2.20;;;;;;;12.73;67.57;101271.53;5046512;28;20401;-86
2022/05/30 07:20:40;;;;;;;6.10;2.10;;;;;;;12.64;63.16;101262.78;5066141;28;20031;-87
2022/05/30 07:23:06;;;;;;;6.63;2.30;;;;;;;12.80;63.73;101266.91;5067498;28;20097;-87
2022/05/30 07:25:35;;;;;;;8.17;2.30;;;;;;;12.99;64.48;101270.56;5063997;28;21728;-86
2022/05/30 07:28:03;;;;;;;7.40;2.20;;;;;;;12.97;60.88;101271.84;5059061;28;20071;-86
2022/05/30 07:30:29;;;;;;;6.93;2.10;;;;;;;13.18;63.56;101274.22;5063088;28;20435;-86
2022/05/30 07:32:56;;;;;;;5.37;2.00;;;;;;;13.20;62.57;101268.56;5062160;28;20906;-87
2022/05/30 07:35:22;;;;;;;7.17;2.00;;;;;;;13.43;62.83;101273.47;5065401;28;20103;-86
2022/05/30 07:37:49;;;;;;;7.30;2.10;;;;;;;13.66;62.58;101264.69;5058777;28;20030;-87
2022/05/30 07:40:15;;;;;;;5.17;2.40;;;;;;;13.68;59.82;101273.50;5062573;28;20385;-87
2022/05/30 07:42:41;;;;;;;4.00;2.17;;;;;;;13.77;59.58;101273.22;5067267;28;20028;-87
2022/05/30 07:45:08;;;;;;;7.57;2.20;;;;;;;13.94;61.58;101249.81;5060220;28;20031;-87
2022/05/30 07:47:33;;;;;;;8.03;2.77;;;;;;;14.13;55.51;101267.00;5067765;28;20037;-87
2022/05/30 07:50:02;;;;;;;6.27;2.57;;;;;;;14.28;59.42;101269.38;5034366;28;20039;-87
2022/05/30 07:52:31;;;;;;;8.27;2.40;;;;;;;13.89;57.55;101268.72;5063365;28;20544;-87
2022/05/30 07:54:57;;;;;;;5.43;2.37;;;;;;;13.65;55.96;101268.50;5049736;28;20491;-87
2022/05/30 07:57:50;;;;;;;6.60;2.67;;;;;;;13.37;56.84;101265.34;5064062;28;20131;-87
2022/05/30 08:00:11;;;;;;;5.80;2.63;;;;;;;13.34;57.66;101262.00;5067507;28;20080;-87
2022/05/30 08:02:38;;;;;;;7.27;2.40;;;;;;;13.32;54.78;101261.38;5067034;28;20056;-87
2022/05/30 08:05:05;;;;;;;5.97;2.90;;;;;;;13.38;56.36;101267.03;5066267;28;20107;-87
2022/05/30 08:07:31;;;;;;;3.80;2.17;;;;;;;13.32;57.48;101261.38;5068487;28;20024;-86
2022/05/30 08:09:56;;;;;;;5.80;3.33;;;;;;;13.12;57.40;101258.78;5053982;28;20365;-86
2022/05/30 08:12:22;;;;;;;3.83;2.17;;;;;;;13.13;58.01;101262.34;5049965;28;20034;-87
2022/05/30 08:14:47;;;;;;;6.57;2.80;;;;;;;12.92;57.19;101245.31;5066108;28;20036;-87
2022/05/30 08:17:12;;;;;;;6.20;2.70;;;;;;;12.81;55.61;101265.00;5066625;28;20438;-87
2022/05/30 08:19:40;;;;;;;9.20;2.93;;;;;;;12.78;56.11;101257.28;5051316;28;20826;-87
2022/05/30 08:22:07;;;;;;;7.27;2.80;;;;;;;13.15;58.04;101260.22;5051253;28;20028;-87
2022/05/30 08:24:41;;;;;;;6.23;2.50;;;;;;;13.26;58.04;101259.53;5068465;28;20524;-87
2022/05/30 08:27:07;;;;;;;6.13;2.63;;;;;;;13.20;57.74;101260.41;5060371;28;20033;-87
2022/05/30 08:29:33;;;;;;;5.07;2.30;;;;;;;13.22;57.18;101263.75;5070297;28;20051;-86
2022/05/30 08:31:58;;;;;;;4.97;2.10;;;;;;;13.22;56.65;101268.34;5064970;28;20032;-86
2022/05/30 08:34:23;;;;;;;6.40;2.23;;;;;;;13.10;55.45;101263.59;5041757;28;20037;-87
2022/05/30 08:36:49;;;;;;;5.83;2.40;;;;;;;13.07;56.56;101268.63;5029898;28;20089;-86
2022/05/30 08:42:00;;;;;;;6.43;2.60;;;;;;;13.87;56.40;101270.84;5063696;28;20824;-87
2022/05/30 08:44:29;;;;;;;6.37;2.57;;;;;;;14.29;54.34;101272.91;5048611;28;20120;-87
2022/05/30 08:47:23;;;;;;;7.63;2.87;;;;;;;14.62;57.07;101279.88;5044895;28;20491;-87
2022/05/30 08:49:52;;;;;;;5.50;2.63;;;;;;;14.47;54.90;101272.09;5062688;28;20444;-87
2022/05/30 08:52:43;;;;;;;5.27;2.23;;;;;;;14.57;54.48;101274.31;5064414;28;20024;-87
2022/05/30 08:55:33;;;;;;;7.60;2.50;;;;;;;14.44;51.76;101280.72;5064161;28;20025;-87
2022/05/30 08:58:28;;;;;;;6.13;2.50;;;;;;;14.05;51.35;101267.31;5064801;28;21188;-86
2022/05/30 09:00:59;;;;;;;7.45;2.83;;;;;;;14.24;52.46;101278.22;5045596;28;20140;-84
2022/05/30 09:03:33;;;;;;;7.00;2.47;;;;;;;14.19;54.09;101273.44;5053012;28;20021;-83
2022/05/30 09:06:04;;;;;;;7.28;2.65;;;;;;;14.06;57.02;101279.88;5055864;28;20025;-83
2022/05/30 09:08:37;;;;;;;4.53;2.00;;;;;;;13.79;52.63;101282.84;5060133;28;20043;-83
2022/05/30 09:11:12;;;;;;;5.37;2.20;;;;;;;13.57;52.72;101276.09;5059318;28;20033;-86
2022/05/30 09:13:42;;;;;;;5.60;1.90;;;;;;;13.49;52.66;101285.34;5078345;28;20032;-86
2022/05/30 09:16:28;;;;;;;6.73;2.20;;;;;;;13.49;53.04;101285.34;5060688;28;20107;-85
2022/05/30 09:18:55;;;;;;;6.33;2.20;;;;;;;13.29;53.33;101286.31;5063301;28;20047;-85
2022/05/30 09:21:22;;;;;;;7.07;2.00;;;;;;;13.36;52.10;101280.84;5060606;28;20029;-85
2022/05/30 09:23:48;;;;;;;7.73;2.00;;;;;;;13.13;52.84;101281.38;5045281;28;20029;-85
2022/05/30 09:26:38;;;;;;;4.17;2.20;;;;;;;13.33;54.41;101284.81;5062558;28;20143;-85
2022/05/30 09:29:17;;;;;;;5.50;2.03;;;;;;;13.34;55.92;101283.78;5045636;28;20109;-80
2022/05/30 09:32:04;;;;;;;75.50;20.80;;;;;;;13.61;55.77;101280.03;5050718;28;20028;-79
2022/05/30 09:34:38;;;;;;;25.23;7.33;;;;;;;13.73;54.77;101280.16;5052161;28;20036;-78
2022/05/30 09:37:04;;;;;;;16.77;3.90;;;;;;;13.65;50.34;101282.13;5051535;28;20097;-78
2022/05/30 09:39:42;;;;;;;7.47;2.17;;;;;;;14.24;52.58;101280.94;5052267;28;20040;-78
2022/05/30 09:42:21;;;;;;;4.50;2.13;;;;;;;14.92;52.53;101284.56;5050142;28;20048;-79
2022/05/30 09:44:50;;;;;;;4.00;1.80;;;;;;;15.34;49.44;101287.38;5050986;28;20033;-79
2022/05/30 09:47:18;;;;;;;4.30;1.90;;;;;;;15.81;48.60;101283.91;5049729;28;20043;-79
2022/05/30 09:49:48;;;;;;;6.00;2.27;;;;;;;16.23;51.07;101280.25;5051225;28;20465;-80
2022/05/30 09:52:32;;;;;;;5.87;1.90;;;;;;;16.39;50.32;101279.50;5051351;28;20032;-80
2022/05/30 09:54:58;;;;;;;6.90;1.70;;;;;;;16.14;45.73;101290.69;5051590;28;20033;-80
2022/05/30 09:57:35;;;;;;;5.53;1.63;;;;;;;16.31;48.24;101288.91;5050723;28;20081;-80
2022/05/30 10:00:16;;;;;;;6.73;1.90;;;;;;;16.18;46.68;101289.16;5051357;28;20040;-79
2022/05/30 10:02:45;;;;;;;6.10;1.73;;;;;;;16.06;45.61;101288.31;5051404;28;20036;-80
2022/05/30 10:05:13;;;;;;;3.50;1.63;;;;;;;16.03;48.23;101286.91;5051659;28;20060;-80
2022/05/30 10:07:51;;;;;;;6.10;1.90;;;;;;;16.26;49.54;101288.78;5051246;28;20039;-81
2022/05/30 10:10:23;;;;;;;5.93;1.97;;;;;;;16.35;47.85;101290.09;5051605;28;20033;-80
2022/05/30 10:13:00;;;;;;;4.43;1.70;;;;;;;16.49;49.07;101289.84;5051345;28;20082;-80
2022/05/30 10:15:27;;;;;;;5.67;1.93;;;;;;;16.45;48.30;101285.91;5051671;28;20970;-80
2022/05/30 10:17:55;;;;;;;5.23;1.80;;;;;;;16.15;46.54;101287.72;5050306;28;20107;-81
2022/05/30 10:20:41;;;;;;;6.07;1.60;;;;;;;16.29;49.17;101292.94;5049472;28;20047;-80
2022/05/30 10:29:17;;;;;;;3.17;1.50;;;;;;;15.92;46.42;101282.25;5055312;28;20178;-80
2022/05/30 10:31:55;;;;;;;4.80;1.40;;;;;;;16.10;44.99;101287.63;5055320;28;20039;-80
2022/05/30 10:34:51;;;;;;;4.77;1.87;;;;;;;16.70;47.97;101285.63;5046997;28;20056;-80
2022/05/30 10:37:45;;;;;;;5.10;1.80;;;;;;;17.27;48.03;101279.38;5053832;28;20036;-80
2022/05/30 10:40:16;;;;;;;4.50;1.70;;;;;;;17.54;46.14;101289.69;5055519;28;20040;-80
2022/05/30 10:43:03;;;;;;;5.85;1.65;;;;;;;17.71;47.92;101282.31;5054186;28;20135;-80
2022/05/30 10:45:46;;;;;;;3.97;1.50;;;;;;;18.19;45.98;101284.72;5056030;28;20063;-81
2022/05/30 10:48:25;;;;;;;3.35;1.60;;;;;;;18.87;45.28;101287.22;5054085;28;20746;-81
2022/05/30 10:51:02;;;;;;;4.03;1.50;;;;;;;19.29;40.68;101291.28;5055453;28;20483;-80
2022/05/30 10:53:31;;;;;;;3.60;1.60;;;;;;;19.48;41.27;101286.25;5055168;28;20040;-81
2022/05/30 10:56:01;;;;;;;3.10;1.42;;;;;;;20.00;41.59;101301.25;5052474;28;20028;-81
2022/05/30 10:58:39;;;;;;;3.33;1.17;;;;;;;20.04;39.10;101297.69;5053026;28;20086;-81
2022/05/30 11:01:37;;;;;;;3.47;1.20;;;;;;;20.28;40.54;101296.47;5053691;28;20036;-81
2022/05/30 11:04:22;;;;;;;4.22;1.60;;;;;;;20.22;36.00;101292.84;5048918;28;20190;-81
2022/05/30 11:06:50;;;;;;;3.85;1.58;;;;;;;19.95;34.84;101293.81;5052609;28;20036;-81
2022/05/30 11:09:28;;;;;;;3.38;1.40;;;;;;;19.97;38.17;101294.34;5052383;28;20028;-81
2022/05/30 11:12:15;;;;;;;2.65;1.40;;;;;;;19.74;37.64;101287.28;5051505;28;20404;-81
2022/05/30 11:14:48;;;;;;;4.30;1.58;;;;;;;19.73;39.92;101291.97;5054412;28;20028;-82
2022/05/30 11:17:34;;;;;;;4.78;1.70;;;;;;;19.28;37.61;101290.44;5051447;28;20036;-81
2022/05/30 11:20:21;;;;;;;3.22;1.30;;;;;;;19.23;39.18;101287.66;5051032;28;20028;-81
2022/05/30 11:22:52;;;;;;;5.13;1.42;;;;;;;18.83;38.99;101286.91;5053260;28;20032;-81
2022/05/30 11:25:55;;;;;;;3.92;1.60;;;;;;;19.19;40.83;101292.00;5053455;28;20044;-81
2022/05/30 11:28:28;;;;;;;2.50;1.48;;;;;;;18.37;37.30;101284.44;5053485;28;20029;-81
2022/05/30 11:31:15;;;;;;;3.47;1.50;;;;;;;18.62;39.44;101274.88;5068742;28;20035;-81
2022/05/30 11:33:50;;;;;;;4.22;1.50;;;;;;;18.27;38.56;101277.97;5051291;28;20032;-80
2022/05/30 11:36:24;;;;;;;;;;;;;;;18.84;38.34;101285.00;5053779;28;20020;-81
2022/05/30 11:39:07;;;;;;;2.45;1.40;;;;;;;17.55;38.06;101280.41;5051738;28;20339;-81
2022/05/30 11:41:38;;;;;;;3.50;1.27;;;;;;;17.32;40.44;101279.44;5053449;28;20032;-81
2022/05/30 11:44:13;;;;;;;3.95;1.60;;;;;;;16.93;41.86;101282.03;5052975;28;20040;-81
2022/05/30 11:46:48;;;;;;;4.10;1.55;;;;;;;16.54;41.59;101284.47;5052271;28;20047;-81
2022/05/30 11:49:51;;;;;;;4.73;1.60;;;;;;;16.32;42.71;101279.63;5051423;28;20025;-81
2022/05/30 11:52:25;;;;;;;5.83;2.10;;;;;;;15.91;42.41;101288.78;5042984;28;20035;-81